NCAR-RAP Real-Time Weather Data

Output produced by METARs form (12 August 2020  18:55 UTC)
found at http://weather.rap.ucar.edu/surface/
 
KSAT 121851Z 19010G18KT 10SM FEW055 FEW250 36/20 A2996 RMK AO2 SLP124 T03610200
KSAT 121751Z 15010KT 10SM FEW050 FEW250 35/21 A2999 RMK AO2 SLP134 T03500211 10350 20256 58005
KSAT 121651Z 16013KT 10SM FEW045 FEW250 33/21 A3000 RMK AO2 SLP137 T03330211
KSAT 121551Z 17011KT 10SM FEW035 FEW250 32/22 A3000 RMK AO2 SLP140 T03170217
KSAT 121451Z 18010KT 10SM FEW025 29/23 A3000 RMK AO2 SLP139 T02940228 50003
KSAT 121351Z 20007G17KT 10SM FEW014 28/23 A3001 RMK AO2 SLP141 T02780228
KSAT 121251Z 18009KT 10SM FEW013 26/23 A3000 RMK AO2 SLP139 T02610233
KSAT 121224Z 17009KT 10SM SCT013 26/23 A3000 RMK AO2 T02560233
KSAT 121151Z 18006KT 10SM BKN013 26/23 A2999 RMK AO2 SLP136 BKN V SCT T02560228 10283 20256 53005
KSAT 121051Z 17007KT 10SM CLR 26/23 A2998 RMK AO2 SLP132 T02610228
KSAT 120951Z 17009KT 10SM FEW015 26/23 A2998 RMK AO2 SLP130 T02610233
KSAT 120851Z 16010KT 10SM FEW017 27/23 A2998 RMK AO2 SLP131 T02670233 50002
KSAT 120751Z 17008KT 10SM CLR 27/23 A2998 RMK AO2 SLP132 T02720228
KSAT 120651Z 16010KT 10SM CLR 28/23 A2998 RMK AO2 SLP132 T02780228
KSAT 120551Z 17010KT 10SM CLR 28/22 A2997 RMK AO2 SLP128 T02830222 10372 20283 403780261 51014
KSAT 120451Z 14010KT 10SM FEW250 29/22 A2996 RMK AO2 SLP126 T02940222
KSAT 120351Z 16014KT 10SM FEW250 30/23 A2995 RMK AO2 SLP122 T03000228
KSAT 120251Z 16015G24KT 10SM FEW075 FEW250 32/23 A2993 RMK AO2 PK WND 16027/0240 SLP114 T03170228 53016
KSAT 120151Z 16013KT 10SM FEW070 FEW250 34/19 A2990 RMK AO2 SLP104 T03440194
KSAT 120051Z 15011KT 10SM FEW075 FEW250 36/19 A2988 RMK AO2 SLP098 T03560189
KSAT 112351Z 14011KT 10SM FEW075 FEW250 37/18 A2988 RMK AO2 SLP097 T03670183 10378 20328 56015
KSAT 112251Z 15010G17KT 10SM FEW075 FEW250 38/19 A2989 RMK AO2 SLP099 T03780189
KSAT 112151Z 17012G16KT 10SM SCT070 SCT250 36/19 A2990 RMK AO2 SLP105 T03610189
KSAT 112051Z 17012G20KT 10SM SCT065 SCT250 37/19 A2992 RMK AO2 SLP112 T03720194 57026
KSAT 111951Z 20010G20KT 10SM SCT060 BKN250 37/20 A2995 RMK AO2 SLP121 T03720200
KSAT 111851Z 15005G17KT 10SM SCT050 SCT250 35/20 A2998 RMK AO2 SLP130 T03500200
KSAT 111751Z 20010G17KT 10SM BKN045 33/21 A3000 RMK AO2 SLP139 T03330206 10344 20267 58011
KSAT 111651Z 16011KT 130V190 10SM SCT036 33/22 A3002 RMK AO2 SLP145 T03330217
KSAT 111551Z 18009KT 10SM SCT034 31/22 A3003 RMK AO2 SLP149 T03110222
KSAT 111520Z 18009KT 10SM SCT031 29/23 A3003 RMK AO2 T02940228
KSAT 111451Z 18009KT 10SM BKN027 BKN250 29/23 A3003 RMK AO2 SLP150 T02890228 50005
KSAT 111351Z 17012KT 10SM SCT015 BKN035 BKN250 27/23 A3005 RMK AO2 SLP158 T02720228
KSAT 111251Z 18008KT 10SM BKN015 BKN026 BKN250 27/23 A3003 RMK AO2 SLP150 T02670233
KSAT 111151Z 17008KT 10SM BKN015 27/23 A3002 RMK AO2 SLP144 T02670233 10278 20261 53010
KSAT 111051Z 17009KT 10SM BKN015 26/23 A3001 RMK AO2 SLP141 T02610233
KSAT 110951Z 16007KT 10SM BKN015 26/23 A2999 RMK AO2 SLP135 T02610233
KSAT 110922Z 16006KT 10SM BKN015 26/23 A2999 RMK AO2 T02610233
KSAT 110851Z 15007KT 10SM SCT016 26/23 A2999 RMK AO2 SLP134 T02610228 58003
KSAT 110751Z 17008KT 10SM FEW060 27/23 A2999 RMK AO2 SLP135 T02670228
KSAT 110651Z 16008KT 10SM FEW060 27/22 A3000 RMK AO2 SLP137 T02720222
KSAT 110551Z 16013G19KT 10SM FEW060 28/22 A3000 RMK AO2 SLP137 T02780222 10361 20278 403780261 51012
KSAT 110451Z 16011KT 10SM FEW060 29/22 A2999 RMK AO2 PK WND 16026/0412 SLP135 T02890217
KSAT 110351Z 15011G22KT 10SM FEW060 31/21 A2998 RMK AO2 PK WND 15026/0321 SLP130 T03060206
KSAT 110251Z 15015G24KT 10SM FEW065 32/21 A2996 RMK AO2 PK WND 14026/0222 SLP124 T03170211 53008
KSAT 110151Z 15017KT 10SM FEW060 33/21 A2993 RMK AO2 SLP117 T03280211
KSAT 110051Z 14019G25KT 10SM FEW070 34/21 A2993 RMK AO2 SLP114 T03440206
KSAT 102351Z 17012KT 10SM FEW070 36/18 A2993 RMK AO2 SLP116 T03610183 10378 20333 56017
KSAT 102251Z 17010G18KT 10SM SCT070 37/18 A2994 RMK AO2 SLP120 T03720183
KSAT 102151Z 17012G21KT 10SM SCT065 37/18 A2996 RMK AO2 SLP126 T03670183
KSAT 102051Z 17012G25KT 10SM SCT065 37/19 A2999 RMK AO2 SLP133 T03720194 58027
KSAT 101951Z 16011G19KT 10SM BKN060 36/19 A3001 RMK AO2 SLP142 T03610194